首页
METAR-TAF:

METAR-TAF

机场 :

La Crosse, 威斯康辛州, 美国

纬度: 43-52-46N, 经度: 091-15-24W, 海拔: 199米

当前天气观测

该预报发布于24分钟前的20:53 UTC
风速7节,风向西南
温度 -7°C
湿度 38%
气压 1029 hPa
能見度: 16.1公里
天空无云

METAR: KLSE 122053Z 22007KT 10SM CLR M07/M19 A3040 RMK AO2 SLP317 T10721189 58031

时间: 15:17 (21:17 UTC)

预报

该预报发布于3小时和57分钟前的17:20 UTC
预报有效从12日的 18点(UTC)到 13日的 18点(UTC)
风速5节,风向多变
能見度: 10公里
少量云层高于25000英尺
从 13日的 0300点(UTC)
风速10节,风向,有时为18节阵风
能見度: 10公里
多云层高于15000英尺
从 13日的 1300点(UTC)
风速11节,风向
能見度: 10公里
阴天层高于8000英尺
从 13日的 1500点(UTC)
风速11节,风向
能見度: 10公里
散云层高于3500英尺
阴天层高于7000英尺
小雪

TAF: KLSE 121720Z 1218/1318 VRB05KT P6SM FEW250 FM130300 17010G18KT P6SM BKN150 FM131300 19011KT P6SM OVC080 FM131500 19011KT P6SM -SN SCT035 OVC070

超过4000个机场的气象观测和天气预报(METAR&TAF报告)。

可查询的气象台以黄色和红色小点在地图上表示。

将鼠标移到小点上方,可查看气象台名称。

然后点击查看天气观测和预报。

如需切换地图:点击带黑十字的绿色按钮放大地图;点击带横线的绿色按钮缩小地图;或者点击绿色箭头查看邻近地区的地图。


METAR-TAF: